Here is the Quick Look data you requested

The Data originates at the National Weather Service, and is made available here by the UAlbany Department of Atmospheric and Environmental Sciences

Surface Observations

KBCB 151855Z AUTO 26006KT 10SM CLR 34/15 A3008 RMK AO2 T03390150=
KBCB 151915Z AUTO 24007KT 10SM CLR 34/16 A3008 RMK AO2 T03420155=
KBCB 151935Z AUTO 21007KT 180V250 10SM CLR 34/16 A3007 RMK AO2 T03420158=
KBCB 151955Z AUTO 30005KT 10SM SCT080 SCT095 35/16 A3006 RMK AO2 T03470158=
KBCB 152015Z AUTO 27004KT 10SM SCT080 SCT095 35/16 A3005 RMK AO2 T03520157=
KBCB 152035Z AUTO 31008KT 10SM SCT080 35/16 A3005 RMK AO2 T03500155=
KBCB 152055Z AUTO 31007KT 10SM SCT080 35/15 A3004 RMK AO2 T03530154=
KBCB 152115Z AUTO 00000KT 10SM SCT080 35/15 A3004 RMK AO2 T03450152=
KBCB 152135Z AUTO 32005KT 10SM SCT080 35/15 A3003 RMK AO2 T03490154=
KBCB 152155Z AUTO 00000KT 10SM CLR 34/15 A3002 RMK AO2 T03440153=
KBCB 152215Z AUTO 00000KT 10SM CLR 34/15 A3002 RMK AO2 T03410151=
KBCB 152235Z AUTO 00000KT 10SM SCT080 34/15 A3002 RMK AO2 T03360152=
KBCB 152255Z AUTO 24003KT 10SM SCT080 33/16 A3002 RMK AO2 T03320157=
KBCB 152315Z AUTO 00000KT 10SM BKN080 32/16 A3002 RMK AO2 T03220156=
KBCB 152335Z AUTO 23004KT 10SM BKN080 32/16 A3003 RMK AO2 T03190158=
KBCB 152355Z AUTO 22005KT 10SM OVC080 31/17 A3004 RMK AO2 T03110168 10354 20311=
KBCB 160015Z AUTO 22004KT 10SM SCT080 30/17 A3005 RMK AO2 T03040171=
KBCB 160035Z AUTO 00000KT 10SM SCT110 30/17 A3006 RMK AO2 LTG DSNT NW T02970171=
KBCB 160055Z AUTO 31007KT 10SM VCTS SCT070 SCT085 BKN100 28/18 A3007 RMK AO2
 LTG DSNT N AND W T02790177=
KBCB 160135Z AUTO 36003G19KT 1 1/2SM +TSRA BKN020 BKN037 OVC049 21/19 A3015 RMK
 AO2 LTG DSNT NW THRU SE P0050 T02120191=
KBCB 160155Z AUTO 12014G33KT 3/4SM +VCTSRA BKN008 OVC016 21/13 A3013 RMK AO2
 LTG DSNT N THRU SE P0166 T02110134=
KBCB 160215Z AUTO 12014G21KT 5SM -TSRA SCT015 BKN038 OVC100 21/18 A3008 RMK AO2
 LTG DSNT NE THRU S P0015 T02100179=
KBCB 160235Z AUTO 13007KT 10SM SCT100 SCT120 22/17 A3007 RMK AO2 P0015
 T02220171=
KBCB 160255Z AUTO 00000KT 10SM CLR 20/20 A3006 RMK AO2 P0015 60185 T02040195=
KBCB 160315Z AUTO 00000KT 10SM CLR 20/20 A3005 RMK AO2 T01960196=
KBCB 160335Z AUTO 00000KT 7SM CLR 19/19 A3005 RMK AO2 T01930193=
KBCB 160355Z AUTO 00000KT 10SM CLR 20/20 A3005 RMK AO2 T01960196=
KBCB 160415Z AUTO 00000KT 10SM CLR 19/19 A3006 RMK AO2 T01940194=
KBCB 160435Z AUTO 00000KT 10SM CLR 19/19 A3005 RMK AO2 T01940194=
KBCB 160455Z AUTO 00000KT 10SM CLR 19/19 A3005 RMK AO2 T01930193 403540183=
KBCB 160515Z AUTO 00000KT 10SM CLR 19/19 A3005 RMK AO2 T01920192=
KBCB 160535Z AUTO 00000KT 10SM CLR 19/19 A3005 RMK AO2 T01930193=
KBCB 160555Z AUTO 00000KT 10SM CLR 19/19 A3006 RMK AO2 60185 T01910191 10311
 20191=
KBCB 160615Z AUTO 00000KT 10SM CLR 19/19 A3005 RMK AO2 T01920192=
KBCB 160635Z AUTO 32003KT 7SM CLR 19/19 A3005 RMK AO2 T01900190=
KBCB 160655Z AUTO 00000KT 7SM CLR 19/19 A3006 RMK AO2 T01900190=
KBCB 160715Z AUTO 00000KT 5SM BR CLR 19/19 A3006 RMK AO2 T01890189=
KBCB 160735Z AUTO 00000KT 7SM CLR 19/19 A3006 RMK AO2 T01900190=
KBCB 160755Z AUTO 00000KT 10SM CLR 19/19 A3005 RMK AO2 T01880188=
KBCB 160815Z AUTO 00000KT 10SM CLR 19/19 A3005 RMK AO2 T01900190=
KBCB 160835Z AUTO 00000KT 7SM CLR 19/19 A3006 RMK AO2 T01880188=
KBCB 160855Z AUTO 00000KT 10SM CLR 19/19 A3006 RMK AO2 T01880188=
KBCB 160915Z AUTO 00000KT 10SM CLR 19/19 A3006 RMK AO2 T01890189=
KBCB 160935Z AUTO 00000KT 5SM BR CLR 19/19 A3006 RMK AO2 T01860186=
KBCB 160955Z AUTO 00000KT 7SM CLR 19/19 A3006 RMK AO2 T01870187=
KBCB 161015Z AUTO 00000KT 5SM BR CLR 19/19 A3006 RMK AO2 T01880188=
KBCB 161035Z AUTO 00000KT 5SM BR CLR 19/19 A3007 RMK AO2 T01880188=
KBCB 161055Z AUTO 00000KT 7SM CLR 19/19 A3007 RMK AO2 T01930193=
KBCB 161115Z AUTO 00000KT 10SM CLR 20/20 A3007 RMK AO2 T02010201=
KBCB 161135Z AUTO 00000KT 10SM CLR 21/21 A3007 RMK AO2 T02060206=
KBCB 161155Z AUTO 31003KT 10SM CLR 21/21 A3008 RMK AO2 70185 T02100210 10210
 20186=
KBCB 161215Z AUTO 00000KT 10SM SCT050 22/22 A3008 RMK AO2 T02170217=
KBCB 161235Z AUTO 00000KT 10SM CLR 22/22 A3009 RMK AO2 T02240222=
KBCB 161255Z AUTO 00000KT 10SM CLR 23/22 A3009 RMK AO2 T02270222=
KBCB 161315Z AUTO 00000KT 10SM CLR 24/22 A3009 RMK AO2 T02350223=
KBCB 161335Z AUTO 00000KT 10SM CLR 24/23 A3009 RMK AO2 T02440229=
KBCB 161355Z AUTO 00000KT 10SM CLR 25/23 A3008 RMK AO2 T02510230=
KBCB 161415Z AUTO 28003KT 10SM CLR 26/23 A3009 RMK AO2 T02630225=
KBCB 161435Z AUTO 26003KT 10SM CLR 27/22 A3009 RMK AO2 T02690215=
KBCB 161455Z AUTO 26004KT 10SM CLR 28/21 A3008 RMK AO2 T02810212=
KBCB 161515Z AUTO 28003KT 10SM CLR 29/21 A3009 RMK AO2 T02860212=
KBCB 161535Z AUTO 24004KT 10SM CLR 29/22 A3009 RMK AO2 T02930215=
KBCB 161555Z AUTO 25004KT 10SM CLR 29/22 A3009 RMK AO2 T02940216=
KBCB 161615Z AUTO 29003KT 10SM CLR 30/22 A3008 RMK AO2 T03020216=
KBCB 161635Z AUTO 29004KT 10SM SCT041 SCT048 31/21 A3007 RMK AO2 T03070213=
KBCB 161655Z AUTO 00000KT 10SM SCT044 31/21 A3006 RMK AO2 T03090210=
KBCB 161715Z AUTO 35003KT 10SM CLR 31/21 A3005 RMK AO2 T03100206=
KBCB 161735Z AUTO 26003KT 10SM SCT047 SCT055 BKN070 32/21 A3004 RMK AO2
 T03150205=
KBCB 161755Z AUTO 29004KT 10SM SCT050 SCT070 32/20 A3004 RMK AO2 T03180200
 10321 20210=
KBCB 161815Z AUTO 00000KT 10SM SCT050 33/20 A3002 RMK AO2 T03270200=
KBCB 161835Z AUTO 00000KT 10SM SCT050 33/20 A3002 RMK AO2 T03250198=
KBCB 161855Z AUTO 00000KT 10SM SCT050 33/19 A3002 RMK AO2 LTG DSNT S T03270193=
KBCB 161915Z AUTO 23004KT 10SM SCT060 SCT085 SCT120 33/20 A3001 RMK AO2
 T03250195=

Decoded Surface Observations


The weather observed at BLACKSBURG/VA T., VA (KBCB) at 02:55 PM EDT was:
  The skies were clear.
  Temperature: 93F ( 34C)  Dewpoint:  59F ( 15C)  Relative Humidity:  32%
  Winds from the W  (260 degs) at  7 mph.
  Altimeter:30.08 inches of mercury.
  The prevailing visibility was 10 miles.

The weather observed at BLACKSBURG/VA T., VA (KBCB) at 03:15 PM EDT was:
  The skies were clear.
  Temperature: 93F ( 34C)  Dewpoint:  61F ( 16C)  Relative Humidity:  34%
  Winds from the SW (240 degs) at  8 mph.
  Altimeter:30.08 inches of mercury.
  The prevailing visibility was 10 miles.

The weather observed at BLACKSBURG/VA T., VA (KBCB) at 03:35 PM EDT was:
  The skies were clear.
  Temperature: 93F ( 34C)  Dewpoint:  61F ( 16C)  Relative Humidity:  34%
  Winds from the SW (210 degs) at  8 mph.
  Altimeter:30.07 inches of mercury.
  The prevailing visibility was 10 miles.

The weather observed at BLACKSBURG/VA T., VA (KBCB) at 03:55 PM EDT was:
  The skies were partly cloudy.
  Temperature: 95F ( 35C)  Dewpoint:  61F ( 16C)  Relative Humidity:  32%
  Winds from the NW (300 degs) at  6 mph.
  Altimeter:30.06 inches of mercury.
  The prevailing visibility was 10 miles.

The weather observed at BLACKSBURG/VA T., VA (KBCB) at 04:15 PM EDT was:
  The skies were partly cloudy.
  Temperature: 95F ( 35C)  Dewpoint:  61F ( 16C)  Relative Humidity:  32%
  Winds from the W  (270 degs) at  5 mph.
  Altimeter:30.05 inches of mercury.
  The prevailing visibility was 10 miles.

The weather observed at BLACKSBURG/VA T., VA (KBCB) at 04:35 PM EDT was:
  The skies were partly cloudy.
  Temperature: 95F ( 35C)  Dewpoint:  61F ( 16C)  Relative Humidity:  32%
  Winds from the NW (310 degs) at  9 mph.
  Altimeter:30.05 inches of mercury.
  The prevailing visibility was 10 miles.

The weather observed at BLACKSBURG/VA T., VA (KBCB) at 04:55 PM EDT was:
  The skies were partly cloudy.
  Temperature: 95F ( 35C)  Dewpoint:  59F ( 15C)  Relative Humidity:  30%
  Winds from the NW (310 degs) at  8 mph.
  Altimeter:30.04 inches of mercury.
  The prevailing visibility was 10 miles.

The weather observed at BLACKSBURG/VA T., VA (KBCB) at 05:15 PM EDT was:
  The skies were partly cloudy.
  Temperature: 95F ( 35C)  Dewpoint:  59F ( 15C)  Relative Humidity:  30%
  Winds from the CLM(CLM degs) at  0 mph.
  Altimeter:30.04 inches of mercury.
  The prevailing visibility was 10 miles.

The weather observed at BLACKSBURG/VA T., VA (KBCB) at 05:35 PM EDT was:
  The skies were partly cloudy.
  Temperature: 95F ( 35C)  Dewpoint:  59F ( 15C)  Relative Humidity:  30%
  Winds from the NW (320 degs) at  6 mph.
  Altimeter:30.03 inches of mercury.
  The prevailing visibility was 10 miles.

The weather observed at BLACKSBURG/VA T., VA (KBCB) at 05:55 PM EDT was:
  The skies were clear.
  Temperature: 93F ( 34C)  Dewpoint:  59F ( 15C)  Relative Humidity:  32%
  Winds from the CLM(CLM degs) at  0 mph.
  Altimeter:30.02 inches of mercury.
  The prevailing visibility was 10 miles.

The weather observed at BLACKSBURG/VA T., VA (KBCB) at 06:15 PM EDT was:
  The skies were clear.
  Temperature: 93F ( 34C)  Dewpoint:  59F ( 15C)  Relative Humidity:  32%
  Winds from the CLM(CLM degs) at  0 mph.
  Altimeter:30.02 inches of mercury.
  The prevailing visibility was 10 miles.

The weather observed at BLACKSBURG/VA T., VA (KBCB) at 06:35 PM EDT was:
  The skies were partly cloudy.
  Temperature: 93F ( 34C)  Dewpoint:  59F ( 15C)  Relative Humidity:  32%
  Winds from the CLM(CLM degs) at  0 mph.
  Altimeter:30.02 inches of mercury.
  The prevailing visibility was 10 miles.

The weather observed at BLACKSBURG/VA T., VA (KBCB) at 06:55 PM EDT was:
  The skies were partly cloudy.
  Temperature: 91F ( 33C)  Dewpoint:  61F ( 16C)  Relative Humidity:  36%
  Winds from the SW (240 degs) at  3 mph.
  Altimeter:30.02 inches of mercury.
  The prevailing visibility was 10 miles.

The weather observed at BLACKSBURG/VA T., VA (KBCB) at 07:15 PM EDT was:
  The skies were mostly cloudy.
  Temperature: 90F ( 32C)  Dewpoint:  61F ( 16C)  Relative Humidity:  38%
  Winds from the CLM(CLM degs) at  0 mph.
  Altimeter:30.02 inches of mercury.
  The prevailing visibility was 10 miles.

The weather observed at BLACKSBURG/VA T., VA (KBCB) at 07:35 PM EDT was:
  The skies were mostly cloudy.
  Temperature: 90F ( 32C)  Dewpoint:  61F ( 16C)  Relative Humidity:  38%
  Winds from the SW (230 degs) at  5 mph.
  Altimeter:30.03 inches of mercury.
  The prevailing visibility was 10 miles.

The weather observed at BLACKSBURG/VA T., VA (KBCB) at 07:55 PM EDT was:
  The skies were cloudy.
  Temperature: 88F ( 31C)  Dewpoint:  62F ( 17C)  Relative Humidity:  42%
  Winds from the SW (220 degs) at  6 mph.
  Altimeter:30.04 inches of mercury.
  The prevailing visibility was 10 miles.
  The maximum temperature in the past 6 hours was  96F.

The weather observed at BLACKSBURG/VA T., VA (KBCB) at 08:15 PM EDT was:
  The skies were partly cloudy.
  Temperature: 86F ( 30C)  Dewpoint:  63F ( 17C)  Relative Humidity:  46%
  Winds from the SW (220 degs) at  5 mph.
  Altimeter:30.05 inches of mercury.
  The prevailing visibility was 10 miles.

The weather observed at BLACKSBURG/VA T., VA (KBCB) at 08:35 PM EDT was:
  The skies were partly cloudy.
  Temperature: 86F ( 30C)  Dewpoint:  63F ( 17C)  Relative Humidity:  46%
  Winds from the CLM(CLM degs) at  0 mph.
  Altimeter:30.06 inches of mercury.
  The prevailing visibility was 10 miles.

The weather observed at BLACKSBURG/VA T., VA (KBCB) at 08:55 PM EDT was:
  The skies were mostly cloudy.
  The weather reported was a thunderstorm in the vicinity.
  Temperature: 82F ( 28C)  Dewpoint:  64F ( 18C)  Relative Humidity:  55%
  Winds from the NW (310 degs) at  8 mph.
  Altimeter:30.07 inches of mercury.
  The prevailing visibility was 10 miles.

The weather observed at BLACKSBURG/VA T., VA (KBCB) at 09:35 PM EDT was:
  The skies were cloudy.
  The weather reported was heavy thunder rain.
  Temperature: 70F ( 21C)  Dewpoint:  66F ( 19C)  Relative Humidity:  88%
  Winds from the N  (360 degs) at  3 mph.
  Altimeter:30.15 inches of mercury.
  The prevailing visibility was 1.5 miles.
  There has been 0.50 inches of precipitation in the past hour.

The weather observed at BLACKSBURG/VA T., VA (KBCB) at 09:55 PM EDT was:
  The skies were cloudy.
  The weather reported was a thunderstorm in the vicinity and moderate rain.
  Temperature: 70F ( 21C)  Dewpoint:  55F ( 13C)  Relative Humidity:  60%
  Winds from the SE (120 degs) at 16 mph.
  Altimeter:30.13 inches of mercury.
  The prevailing visibility was .75 miles.
  There has been 1.66 inches of precipitation in the past hour.

The weather observed at BLACKSBURG/VA T., VA (KBCB) at 10:15 PM EDT was:
  The skies were cloudy.
  The weather reported was light thunder rain.
  Temperature: 70F ( 21C)  Dewpoint:  64F ( 18C)  Relative Humidity:  83%
  Winds from the SE (120 degs) at 16 mph.
  Altimeter:30.08 inches of mercury.
  The prevailing visibility was 5 miles.
  There has been 0.15 inches of precipitation in the past hour.

The weather observed at BLACKSBURG/VA T., VA (KBCB) at 10:35 PM EDT was:
  The skies were partly cloudy.
  Temperature: 72F ( 22C)  Dewpoint:  63F ( 17C)  Relative Humidity:  73%
  Winds from the SE (130 degs) at  8 mph.
  Altimeter:30.07 inches of mercury.
  The prevailing visibility was 10 miles.
  There has been 0.15 inches of precipitation in the past hour.

The weather observed at BLACKSBURG/VA T., VA (KBCB) at 10:55 PM EDT was:
  The skies were clear.
  Temperature: 68F ( 20C)  Dewpoint:  68F ( 20C)  Relative Humidity: 100%
  Winds from the CLM(CLM degs) at  0 mph.
  Altimeter:30.06 inches of mercury.
  The prevailing visibility was 10 miles.
  There has been 0.15 inches of precipitation in the past hour.
  There has been 1.85 inches of precipitation in the past 6 hours.

The weather observed at BLACKSBURG/VA T., VA (KBCB) at 11:15 PM EDT was:
  The skies were clear.
  Temperature: 68F ( 20C)  Dewpoint:  68F ( 20C)  Relative Humidity: 100%
  Winds from the CLM(CLM degs) at  0 mph.
  Altimeter:30.05 inches of mercury.
  The prevailing visibility was 10 miles.

The weather observed at BLACKSBURG/VA T., VA (KBCB) at 11:35 PM EDT was:
  The skies were clear.
  Temperature: 66F ( 19C)  Dewpoint:  66F ( 19C)  Relative Humidity: 100%
  Winds from the CLM(CLM degs) at  0 mph.
  Altimeter:30.05 inches of mercury.
  The prevailing visibility was 7 miles.

The weather observed at BLACKSBURG/VA T., VA (KBCB) at 11:55 PM EDT was:
  The skies were clear.
  Temperature: 68F ( 20C)  Dewpoint:  68F ( 20C)  Relative Humidity: 100%
  Winds from the CLM(CLM degs) at  0 mph.
  Altimeter:30.05 inches of mercury.
  The prevailing visibility was 10 miles.

The weather observed at BLACKSBURG/VA T., VA (KBCB) at 12:15 AM EDT was:
  The skies were clear.
  Temperature: 66F ( 19C)  Dewpoint:  66F ( 19C)  Relative Humidity: 100%
  Winds from the CLM(CLM degs) at  0 mph.
  Altimeter:30.06 inches of mercury.
  The prevailing visibility was 10 miles.

The weather observed at BLACKSBURG/VA T., VA (KBCB) at 12:35 AM EDT was:
  The skies were clear.
  Temperature: 66F ( 19C)  Dewpoint:  66F ( 19C)  Relative Humidity: 100%
  Winds from the CLM(CLM degs) at  0 mph.
  Altimeter:30.05 inches of mercury.
  The prevailing visibility was 10 miles.

The weather observed at BLACKSBURG/VA T., VA (KBCB) at 12:55 AM EDT was:
  The skies were clear.
  Temperature: 67F ( 19C)  Dewpoint:  67F ( 19C)  Relative Humidity: 100%
  Winds from the CLM(CLM degs) at  0 mph.
  Altimeter:30.05 inches of mercury.
  The prevailing visibility was 10 miles.

The weather observed at BLACKSBURG/VA T., VA (KBCB) at 01:15 AM EDT was:
  The skies were clear.
  Temperature: 66F ( 19C)  Dewpoint:  66F ( 19C)  Relative Humidity: 100%
  Winds from the CLM(CLM degs) at  0 mph.
  Altimeter:30.05 inches of mercury.
  The prevailing visibility was 10 miles.

The weather observed at BLACKSBURG/VA T., VA (KBCB) at 01:35 AM EDT was:
  The skies were clear.
  Temperature: 66F ( 19C)  Dewpoint:  66F ( 19C)  Relative Humidity: 100%
  Winds from the CLM(CLM degs) at  0 mph.
  Altimeter:30.05 inches of mercury.
  The prevailing visibility was 10 miles.

The weather observed at BLACKSBURG/VA T., VA (KBCB) at 01:55 AM EDT was:
  The skies were clear.
  Temperature: 66F ( 19C)  Dewpoint:  66F ( 19C)  Relative Humidity: 100%
  Winds from the CLM(CLM degs) at  0 mph.
  Altimeter:30.06 inches of mercury.
  The prevailing visibility was 10 miles.
  The maximum temperature in the past 6 hours was  88F.
  There has been 1.85 inches of precipitation in the past 6 hours.

The weather observed at BLACKSBURG/VA T., VA (KBCB) at 02:15 AM EDT was:
  The skies were clear.
  Temperature: 66F ( 19C)  Dewpoint:  66F ( 19C)  Relative Humidity: 100%
  Winds from the CLM(CLM degs) at  0 mph.
  Altimeter:30.05 inches of mercury.
  The prevailing visibility was 10 miles.

The weather observed at BLACKSBURG/VA T., VA (KBCB) at 02:35 AM EDT was:
  The skies were clear.
  Temperature: 66F ( 19C)  Dewpoint:  66F ( 19C)  Relative Humidity: 100%
  Winds from the NW (320 degs) at  3 mph.
  Altimeter:30.05 inches of mercury.
  The prevailing visibility was 7 miles.

The weather observed at BLACKSBURG/VA T., VA (KBCB) at 02:55 AM EDT was:
  The skies were clear.
  Temperature: 66F ( 19C)  Dewpoint:  66F ( 19C)  Relative Humidity: 100%
  Winds from the CLM(CLM degs) at  0 mph.
  Altimeter:30.06 inches of mercury.
  The prevailing visibility was 7 miles.

The weather observed at BLACKSBURG/VA T., VA (KBCB) at 03:15 AM EDT was:
  The skies were clear.
  The weather reported was fog.
  Temperature: 66F ( 19C)  Dewpoint:  66F ( 19C)  Relative Humidity: 100%
  Winds from the CLM(CLM degs) at  0 mph.
  Altimeter:30.06 inches of mercury.
  The prevailing visibility was 5 miles.

The weather observed at BLACKSBURG/VA T., VA (KBCB) at 03:35 AM EDT was:
  The skies were clear.
  Temperature: 66F ( 19C)  Dewpoint:  66F ( 19C)  Relative Humidity: 100%
  Winds from the CLM(CLM degs) at  0 mph.
  Altimeter:30.06 inches of mercury.
  The prevailing visibility was 7 miles.

The weather observed at BLACKSBURG/VA T., VA (KBCB) at 03:55 AM EDT was:
  The skies were clear.
  Temperature: 66F ( 19C)  Dewpoint:  66F ( 19C)  Relative Humidity: 100%
  Winds from the CLM(CLM degs) at  0 mph.
  Altimeter:30.05 inches of mercury.
  The prevailing visibility was 10 miles.

The weather observed at BLACKSBURG/VA T., VA (KBCB) at 04:15 AM EDT was:
  The skies were clear.
  Temperature: 66F ( 19C)  Dewpoint:  66F ( 19C)  Relative Humidity: 100%
  Winds from the CLM(CLM degs) at  0 mph.
  Altimeter:30.05 inches of mercury.
  The prevailing visibility was 10 miles.

The weather observed at BLACKSBURG/VA T., VA (KBCB) at 04:35 AM EDT was:
  The skies were clear.
  Temperature: 66F ( 19C)  Dewpoint:  66F ( 19C)  Relative Humidity: 100%
  Winds from the CLM(CLM degs) at  0 mph.
  Altimeter:30.06 inches of mercury.
  The prevailing visibility was 7 miles.

The weather observed at BLACKSBURG/VA T., VA (KBCB) at 04:55 AM EDT was:
  The skies were clear.
  Temperature: 66F ( 19C)  Dewpoint:  66F ( 19C)  Relative Humidity: 100%
  Winds from the CLM(CLM degs) at  0 mph.
  Altimeter:30.06 inches of mercury.
  The prevailing visibility was 10 miles.

The weather observed at BLACKSBURG/VA T., VA (KBCB) at 05:15 AM EDT was:
  The skies were clear.
  Temperature: 66F ( 19C)  Dewpoint:  66F ( 19C)  Relative Humidity: 100%
  Winds from the CLM(CLM degs) at  0 mph.
  Altimeter:30.06 inches of mercury.
  The prevailing visibility was 10 miles.

The weather observed at BLACKSBURG/VA T., VA (KBCB) at 05:35 AM EDT was:
  The skies were clear.
  The weather reported was fog.
  Temperature: 66F ( 19C)  Dewpoint:  66F ( 19C)  Relative Humidity: 100%
  Winds from the CLM(CLM degs) at  0 mph.
  Altimeter:30.06 inches of mercury.
  The prevailing visibility was 5 miles.

The weather observed at BLACKSBURG/VA T., VA (KBCB) at 05:55 AM EDT was:
  The skies were clear.
  Temperature: 66F ( 19C)  Dewpoint:  66F ( 19C)  Relative Humidity: 100%
  Winds from the CLM(CLM degs) at  0 mph.
  Altimeter:30.06 inches of mercury.
  The prevailing visibility was 7 miles.

The weather observed at BLACKSBURG/VA T., VA (KBCB) at 06:15 AM EDT was:
  The skies were clear.
  The weather reported was fog.
  Temperature: 66F ( 19C)  Dewpoint:  66F ( 19C)  Relative Humidity: 100%
  Winds from the CLM(CLM degs) at  0 mph.
  Altimeter:30.06 inches of mercury.
  The prevailing visibility was 5 miles.

The weather observed at BLACKSBURG/VA T., VA (KBCB) at 06:35 AM EDT was:
  The skies were clear.
  The weather reported was fog.
  Temperature: 66F ( 19C)  Dewpoint:  66F ( 19C)  Relative Humidity: 100%
  Winds from the CLM(CLM degs) at  0 mph.
  Altimeter:30.07 inches of mercury.
  The prevailing visibility was 5 miles.

The weather observed at BLACKSBURG/VA T., VA (KBCB) at 06:55 AM EDT was:
  The skies were clear.
  Temperature: 66F ( 19C)  Dewpoint:  66F ( 19C)  Relative Humidity: 100%
  Winds from the CLM(CLM degs) at  0 mph.
  Altimeter:30.07 inches of mercury.
  The prevailing visibility was 7 miles.

The weather observed at BLACKSBURG/VA T., VA (KBCB) at 07:15 AM EDT was:
  The skies were clear.
  Temperature: 68F ( 20C)  Dewpoint:  68F ( 20C)  Relative Humidity: 100%
  Winds from the CLM(CLM degs) at  0 mph.
  Altimeter:30.07 inches of mercury.
  The prevailing visibility was 10 miles.

The weather observed at BLACKSBURG/VA T., VA (KBCB) at 07:35 AM EDT was:
  The skies were clear.
  Temperature: 70F ( 21C)  Dewpoint:  70F ( 21C)  Relative Humidity: 100%
  Winds from the CLM(CLM degs) at  0 mph.
  Altimeter:30.07 inches of mercury.
  The prevailing visibility was 10 miles.

The weather observed at BLACKSBURG/VA T., VA (KBCB) at 07:55 AM EDT was:
  The skies were clear.
  Temperature: 70F ( 21C)  Dewpoint:  70F ( 21C)  Relative Humidity: 100%
  Winds from the NW (310 degs) at  3 mph.
  Altimeter:30.08 inches of mercury.
  The prevailing visibility was 10 miles.
  The maximum temperature in the past 6 hours was  70F.
  There has been 1.85 inches of precipitation in the past 24 hours.

The weather observed at BLACKSBURG/VA T., VA (KBCB) at 08:15 AM EDT was:
  The skies were partly cloudy.
  Temperature: 72F ( 22C)  Dewpoint:  72F ( 22C)  Relative Humidity: 100%
  Winds from the CLM(CLM degs) at  0 mph.
  Altimeter:30.08 inches of mercury.
  The prevailing visibility was 10 miles.

The weather observed at BLACKSBURG/VA T., VA (KBCB) at 08:35 AM EDT was:
  The skies were clear.
  Temperature: 72F ( 22C)  Dewpoint:  72F ( 22C)  Relative Humidity: 100%
  Winds from the CLM(CLM degs) at  0 mph.
  Altimeter:30.09 inches of mercury.
  The prevailing visibility was 10 miles.

The weather observed at BLACKSBURG/VA T., VA (KBCB) at 08:55 AM EDT was:
  The skies were clear.
  Temperature: 73F ( 23C)  Dewpoint:  72F ( 22C)  Relative Humidity:  94%
  Winds from the CLM(CLM degs) at  0 mph.
  Altimeter:30.09 inches of mercury.
  The prevailing visibility was 10 miles.

The weather observed at BLACKSBURG/VA T., VA (KBCB) at 09:15 AM EDT was:
  The skies were clear.
  Temperature: 75F ( 24C)  Dewpoint:  72F ( 22C)  Relative Humidity:  89%
  Winds from the CLM(CLM degs) at  0 mph.
  Altimeter:30.09 inches of mercury.
  The prevailing visibility was 10 miles.

The weather observed at BLACKSBURG/VA T., VA (KBCB) at 09:35 AM EDT was:
  The skies were clear.
  Temperature: 75F ( 24C)  Dewpoint:  73F ( 23C)  Relative Humidity:  94%
  Winds from the CLM(CLM degs) at  0 mph.
  Altimeter:30.09 inches of mercury.
  The prevailing visibility was 10 miles.

The weather observed at BLACKSBURG/VA T., VA (KBCB) at 09:55 AM EDT was:
  The skies were clear.
  Temperature: 77F ( 25C)  Dewpoint:  73F ( 23C)  Relative Humidity:  89%
  Winds from the CLM(CLM degs) at  0 mph.
  Altimeter:30.08 inches of mercury.
  The prevailing visibility was 10 miles.

The weather observed at BLACKSBURG/VA T., VA (KBCB) at 10:15 AM EDT was:
  The skies were clear.
  Temperature: 79F ( 26C)  Dewpoint:  73F ( 23C)  Relative Humidity:  84%
  Winds from the W  (280 degs) at  3 mph.
  Altimeter:30.09 inches of mercury.
  The prevailing visibility was 10 miles.

The weather observed at BLACKSBURG/VA T., VA (KBCB) at 10:35 AM EDT was:
  The skies were clear.
  Temperature: 81F ( 27C)  Dewpoint:  72F ( 22C)  Relative Humidity:  74%
  Winds from the W  (260 degs) at  3 mph.
  Altimeter:30.09 inches of mercury.
  The prevailing visibility was 10 miles.

The weather observed at BLACKSBURG/VA T., VA (KBCB) at 10:55 AM EDT was:
  The skies were clear.
  Temperature: 82F ( 28C)  Dewpoint:  70F ( 21C)  Relative Humidity:  66%
  Winds from the W  (260 degs) at  5 mph.
  Altimeter:30.08 inches of mercury.
  The prevailing visibility was 10 miles.

The weather observed at BLACKSBURG/VA T., VA (KBCB) at 11:15 AM EDT was:
  The skies were clear.
  Temperature: 84F ( 29C)  Dewpoint:  70F ( 21C)  Relative Humidity:  62%
  Winds from the W  (280 degs) at  3 mph.
  Altimeter:30.09 inches of mercury.
  The prevailing visibility was 10 miles.

The weather observed at BLACKSBURG/VA T., VA (KBCB) at 11:35 AM EDT was:
  The skies were clear.
  Temperature: 84F ( 29C)  Dewpoint:  72F ( 22C)  Relative Humidity:  66%
  Winds from the SW (240 degs) at  5 mph.
  Altimeter:30.09 inches of mercury.
  The prevailing visibility was 10 miles.

The weather observed at BLACKSBURG/VA T., VA (KBCB) at 11:55 AM EDT was:
  The skies were clear.
  Temperature: 84F ( 29C)  Dewpoint:  72F ( 22C)  Relative Humidity:  66%
  Winds from the WSW(250 degs) at  5 mph.
  Altimeter:30.09 inches of mercury.
  The prevailing visibility was 10 miles.

The weather observed at BLACKSBURG/VA T., VA (KBCB) at 12:15 PM EDT was:
  The skies were clear.
  Temperature: 86F ( 30C)  Dewpoint:  72F ( 22C)  Relative Humidity:  62%
  Winds from the WNW(290 degs) at  3 mph.
  Altimeter:30.08 inches of mercury.
  The prevailing visibility was 10 miles.

The weather observed at BLACKSBURG/VA T., VA (KBCB) at 12:35 PM EDT was:
  The skies were partly cloudy.
  Temperature: 88F ( 31C)  Dewpoint:  70F ( 21C)  Relative Humidity:  55%
  Winds from the WNW(290 degs) at  5 mph.
  Altimeter:30.07 inches of mercury.
  The prevailing visibility was 10 miles.

The weather observed at BLACKSBURG/VA T., VA (KBCB) at 12:55 PM EDT was:
  The skies were partly cloudy.
  Temperature: 88F ( 31C)  Dewpoint:  70F ( 21C)  Relative Humidity:  55%
  Winds from the CLM(CLM degs) at  0 mph.
  Altimeter:30.06 inches of mercury.
  The prevailing visibility was 10 miles.

The weather observed at BLACKSBURG/VA T., VA (KBCB) at 01:15 PM EDT was:
  The skies were clear.
  Temperature: 88F ( 31C)  Dewpoint:  70F ( 21C)  Relative Humidity:  55%
  Winds from the N  (350 degs) at  3 mph.
  Altimeter:30.05 inches of mercury.
  The prevailing visibility was 10 miles.

The weather observed at BLACKSBURG/VA T., VA (KBCB) at 01:35 PM EDT was:
  The skies were mostly cloudy.
  Temperature: 90F ( 32C)  Dewpoint:  70F ( 21C)  Relative Humidity:  52%
  Winds from the W  (260 degs) at  3 mph.
  Altimeter:30.04 inches of mercury.
  The prevailing visibility was 10 miles.

The weather observed at BLACKSBURG/VA T., VA (KBCB) at 01:55 PM EDT was:
  The skies were partly cloudy.
  Temperature: 89F ( 32C)  Dewpoint:  68F ( 20C)  Relative Humidity:  50%
  Winds from the WNW(290 degs) at  5 mph.
  Altimeter:30.04 inches of mercury.
  The prevailing visibility was 10 miles.
  The maximum temperature in the past 6 hours was  90F.

The weather observed at BLACKSBURG/VA T., VA (KBCB) at 02:15 PM EDT was:
  The skies were partly cloudy.
  Temperature: 91F ( 33C)  Dewpoint:  68F ( 20C)  Relative Humidity:  46%
  Winds from the CLM(CLM degs) at  0 mph.
  Altimeter:30.02 inches of mercury.
  The prevailing visibility was 10 miles.

The weather observed at BLACKSBURG/VA T., VA (KBCB) at 02:35 PM EDT was:
  The skies were partly cloudy.
  Temperature: 91F ( 33C)  Dewpoint:  68F ( 20C)  Relative Humidity:  46%
  Winds from the CLM(CLM degs) at  0 mph.
  Altimeter:30.02 inches of mercury.
  The prevailing visibility was 10 miles.

The weather observed at BLACKSBURG/VA T., VA (KBCB) at 02:55 PM EDT was:
  The skies were partly cloudy.
  Temperature: 91F ( 33C)  Dewpoint:  66F ( 19C)  Relative Humidity:  44%
  Winds from the CLM(CLM degs) at  0 mph.
  Altimeter:30.02 inches of mercury.
  The prevailing visibility was 10 miles.

The weather observed at BLACKSBURG/VA T., VA (KBCB) at 03:15 PM EDT was:
  The skies were partly cloudy.
  Temperature: 91F ( 33C)  Dewpoint:  68F ( 20C)  Relative Humidity:  46%
  Winds from the SW (230 degs) at  5 mph.
  Altimeter:30.01 inches of mercury.
  The prevailing visibility was 10 miles.

Short Range Forecast

Sorry no data found for bcb
Make sure bcb is a valid station
You might need to specify a nearby major city
Try Again

Zone Forecast

VAZ014-170300-
Montgomery-
Including the city of Blacksburg
302 PM EDT Tue Jul 16 2024

.THIS AFTERNOON...Mostly sunny with a slight chance of showers
and thunderstorms. Hot. Near steady temperature in the lower 90s.
Southwest winds around 10 mph. Chance of rain 20 percent.
.TONIGHT...Partly cloudy. A slight chance of showers and
thunderstorms in the evening. Humid with lows in the upper 60s.
West winds 5 to 10 mph. Chance of rain 20 percent.
.WEDNESDAY...Sunny in the morning, then partly sunny with showers
with thunderstorms likely in the afternoon. Humid with highs in
the upper 80s. West winds 5 to 10 mph. Chance of rain 80 percent.
.WEDNESDAY NIGHT...Mostly cloudy. Showers and thunderstorms
likely, mainly in the evening. Humid with lows in the upper 60s.
West winds 5 to 10 mph. Chance of rain 70 percent.
.THURSDAY...Partly sunny in the morning, then becoming mostly
cloudy. A chance of thunderstorms. A chance of showers in the
morning, then showers likely in the afternoon. Humid with highs
in the lower 80s. Northwest winds around 5 mph. Chance of rain
70 percent.
.THURSDAY NIGHT...Mostly cloudy with showers likely in the
evening, then partly cloudy after midnight. Lows in the lower
60s. Chance of rain 70 percent.
.FRIDAY AND FRIDAY NIGHT...Mostly cloudy. A chance of showers and
thunderstorms. Highs in the upper 70s. Lows in the mid 60s.
Chance of rain 40 percent.
.SATURDAY AND SATURDAY NIGHT...Mostly cloudy with showers likely
with a chance of thunderstorms. Highs in the lower 80s. Lows in
the mid 60s. Chance of rain 70 percent.
.SUNDAY...Partly sunny. Showers likely with a chance of
thunderstorms in the afternoon. Highs in the lower 80s. Chance of
rain 60 percent.
.SUNDAY NIGHT...Mostly cloudy with a chance of showers and
thunderstorms. Lows in the mid 60s. Chance of rain 50 percent.
.MONDAY...Partly sunny with a chance of showers in the morning,
then mostly cloudy with showers likely with a chance of
thunderstorms in the afternoon. Highs in the lower 80s. Chance of
rain 70 percent.


State Forecast

Sorry no data found for bcb
Make sure bcb is a valid station
You might need to specify a nearby major city
Try Again

State Forecast Discussion

Sorry no data found for bcb
Make sure bcb is a valid station
You might need to specify a nearby major city
Try Again

GFS Short-Range Model Output Statistics (MOS) Forecast

KBCB   GFS MOS GUIDANCE    7/16/2024  1200 UTC
DT /JULY 16/JULY 17                /JULY 18                /JULY 19
HR   18 21 00 03 06 09 12 15 18 21 00 03 06 09 12 15 18 21 00 06 12
N/X                    70          87          66          81    61
TMP  90 89 83 76 72 70 74 82 84 81 77 72 70 68 69 76 78 78 75 65 65
DPT  66 65 68 70 69 68 70 72 70 70 71 71 70 68 69 70 67 65 65 62 61
CLD  SC SC BK BK SC BK BK SC OV OV OV OV OV OV OV OV BK BK BK BK BK
WDR  25 24 20 26 00 00 26 26 26 26 28 00 00 30 32 32 31 32 33 03 04
WSP  05 05 03 01 00 00 01 04 06 08 02 00 00 01 01 04 05 05 04 01 02
P06         9    18     9    11    52    51    37    33    27  9  6
P12                    26          71          61          52    15
Q06         0     0     0     0     1     1     1     0     0  0  0
Q12                     0           2           1           1     0
T06     26/17 21/ 3  2/ 0 17/ 7 55/25 26/ 4  8/ 0 17/ 4 26/11  1/ 0
T12           48/18       17/ 7       70/25       23/ 6    26/14
CIG   8  8  8  8  8  8  8  8  7  7  6  4  4  4  4  6  7  7  8  7  7
VIS   7  7  7  7  7  7  7  7  7  7  7  5  1  3  4  7  7  7  7  7  7
OBV   N  N  N  N BR  N  N  N  N  N  N BR FG BR BR  N  N  N  N  N  N

GFS Long-Range Model Output Statistics (MOS) Forecast

KBCB   GFSX MOS GUIDANCE   7/16/2024  1200 UTC
FHR  24  36| 48  60| 72  84| 96 108|120 132|144 156|168 180|192
     WED 17| THU 18| FRI 19| SAT 20| SUN 21| MON 22| TUE 23|WED CLIMO
N/X  70  87| 66  81| 61  83| 65  81| 65  85| 65  84| 64  83| 66 60 83
TMP  74  77| 69  75| 65  75| 69  74| 69  77| 68  76| 68  76| 69
DPT  70  71| 69  65| 61  65| 67  70| 68  68| 67  67| 67  69| 69
CLD  OV  OV| OV  OV| PC  PC| OV  OV| OV  OV| OV  OV| OV  OV| OV
WND   3   8|  2   5|  4   4|  3   3|  2   4|  2   4|  2   5|  2
P12  26  71| 61  52| 15  13| 30  58| 46  37| 37  52| 41  46| 37999999
P24      71|     72|     21|     63|     56|     64|     69|      999
Q12   0   2|  1   1|  0   0|  0   3|  1   0|  1   3|       |
Q24       2|      2|      0|      2|      1|      3|       |
T12  21  55| 30  27|  5  25| 10  47| 23  40| 18  40| 15  37| 13
T24        | 60    | 27    | 25    | 54    | 43    | 40    | 37

NGM Model Output Statistics (MOS) Forecast

Climatological Summary

Sorry no data found for bcb
Make sure bcb is a valid station
You might need to specify a nearby major city
Try Again

Watch and Warning Statment

Sorry no data found for bcb
Make sure bcb is a valid station
You might need to specify a nearby major city
or it could be THERE ARE NO WATCHES OR WARNINGS for bcb
Try Again

Park/Ski Recreation Report/Forecast

Sorry no data found for bcb
Make sure bcb is a valid station
You might need to specify a nearby major city
Try Again